Flight Track Log - Related Links

Times and Time Zones

All times are in EDT time to prevent confusion due to time zone crossing. See the RPA3496 flight status page for this flight to view local times or setup timezone preferences in your user account.

Time Position Orientation Groundspeed Altitude Reporting Facility
EDT Latitude Longitude Course Direction KTS MPH feet Rate Location/Type
Tue 04:02:12 PM 40.7333 -73.8167 283° West 186 214 2,600  Level New York TRACON
Tue 04:03:12 PM 40.7667 -73.7667 49° Northeast 227 261 4,900 2,300 Climbing New York TRACON
Tue 04:04:12 PM 40.8167 -73.8167 323° Northwest 271 312 7,200 2,650 Climbing New York TRACON
Tue 04:05:00 PM 40.7666 -74.4138 269° West  Level Estimated
Tue 04:05:12 PM 40.8167 -73.9167 270° West 268 308 10,200  Level New York TRACON
Tue 04:06:00 PM 40.7641 -74.5220 268° West  Level Estimated
Tue 04:06:12 PM 40.8167 -74.0167 270° West 288 331 12,200  Level New York TRACON
Tue 04:07:00 PM 40.7823 -74.6276 283° West  Level FlightAware Approximate
Tue 04:07:12 PM 40.8167 -74.1333 270° West 314 361 14,300  Level New York TRACON
Tue 04:08:12 PM 40.8167 -74.2500 270° West 336 387 15,000 950 Climbing New York TRACON
Tue 04:09:12 PM 40.8167 -74.3667 270° West 337 388 16,200 1,000 Climbing New York TRACON
Tue 04:10:12 PM 40.8167 -74.5000 270° West 344 396 17,000 400 Climbing New York TRACON
Tue 04:11:12 PM 40.8167 -74.6333 270° West 345 397 17,000 302 Level New York TRACON
Tue 04:12:31 PM 40.8083 -74.7767 266° West 350 403 17,700 1,029 Climbing New York Center
Tue 04:13:32 PM 40.8011 -74.9242 266° West 350 403 19,400 1,664 Climbing New York Center
Tue 04:14:30 PM 40.7678 -75.0425 250° West 350 403 21,000 1,576 Climbing New York Center
Tue 04:15:30 PM 40.7317 -75.1692 249° West 355 409 22,500 1,438 Climbing New York Center
Tue 04:16:31 PM 40.6958 -75.2956 250° West 366 421 23,900 1,300 Climbing New York Center
Tue 04:17:30 PM 40.6572 -75.4297 249° West 371 427 25,100 1,300 Climbing New York Center
Tue 04:18:31 PM 40.6206 -75.5611 250° West 384 442 26,500 1,289 Climbing New York Center
Tue 04:19:31 PM 40.5797 -75.6978 249° West 389 448 27,700 1,180 Climbing New York Center
Tue 04:20:33 PM 40.5425 -75.8344 250° West 394 453 28,900 950 Climbing New York Center
Tue 04:21:31 PM 40.4994 -75.9622 246° West 412 474 29,600 958 Climbing New York Center
Tue 04:22:32 PM 40.4553 -76.1117 249° West 430 495 30,800 1,160 Climbing New York Center
Tue 04:23:30 PM 40.4153 -76.2558 250° West 430 495 31,900 600 Climbing New York Center
Tue 04:24:32 PM 40.3772 -76.4000 251° West 435 501 32,000 50 Climbing New York Center
Tue 04:25:30 PM 40.3408 -76.5494 252° West 435 501 32,000  Level New York Center
Tue 04:26:33 PM 40.3022 -76.6986 251° West 435 501 32,000  Level New York Center
Tue 04:27:30 PM 40.2636 -76.8425 251° West 435 501 32,000  Level New York Center
Tue 04:28:33 PM 40.2269 -76.9861 252° West 435 501 32,000  Level New York Center
Tue 04:29:31 PM 40.1881 -77.1319 251° West 435 501 32,000 -504 Level New York Center
Tue 04:30:32 PM 40.1503 -77.2861 252° West 424 488 31,000 -1,700 Descending New York Center
Tue 04:31:31 PM 40.1111 -77.4317 251° West 424 488 28,600 -2,226 Descending New York Center
Tue 04:32:36 PM 40.0764 -77.5656 251° West 402 463 26,400 -2,079 Descending Cleveland Center
Tue 04:33:38 PM 40.0411 -77.6981 251° West 391 450 24,200 -2,129 Descending Cleveland Center
Tue 04:34:40 PM 40.0000 -77.8517 251° West 379 436 22,000 -1,065 Descending Cleveland Center
Tue 04:35:42 PM 39.9722 -77.9797 254° West 371 427 22,000  Level Cleveland Center
Tue 04:36:43 PM 39.9750 -78.1181 272° West 380 437 22,000 -439 Level Cleveland Center
Tue 04:37:45 PM 39.9789 -78.2528 272° West 379 436 21,100 -919 Descending Cleveland Center
Tue 04:38:47 PM 39.9881 -78.3789 275° West 370 426 20,100 -1,113 Descending Cleveland Center
Tue 04:39:49 PM 40.0122 -78.5292 282° West 357 411 18,800 -1,122 Descending Cleveland Center
Tue 04:40:50 PM 40.0317 -78.6481 282° West 343 395 17,800 -878 Descending Cleveland Center
Tue 04:41:52 PM 40.0494 -78.7644 281° West 333 383 17,000 -387 Descending Cleveland Center
Tue 04:42:54 PM 40.0678 -78.8806 282° West 331 381 17,000  Level Cleveland Center
Tue 04:43:55 PM 40.0864 -78.9983 282° West 331 381 17,000 -341 Level Cleveland Center
Tue 04:44:57 PM 40.1200 -79.1103 291° West 333 383 16,300 -1,113 Descending Cleveland Center
Tue 04:45:59 PM 40.1603 -79.2144 297° West 326 375 14,700 -1,707 Descending Cleveland Center
Tue 04:47:00 PM 40.1972 -79.3342 292° West 326 375 12,800 -1,805 Descending Cleveland Center
Tue 04:48:02 PM 40.2339 -79.4383 295° West 319 367 11,000 -1,355 Descending Cleveland Center
Tue 04:49:04 PM 40.2733 -79.5314 299° West 297 342 10,000 -537 Descending Cleveland Center
Tue 04:50:05 PM 40.3111 -79.6211 299° West 286 329 9,900 -1,122 Descending Cleveland Center
Tue 04:51:07 PM 40.3567 -79.7278 299° West 283 326 7,700 -1,824 Descending Cleveland Center
Tue 04:52:10 PM 40.3931 -79.8139 299° West 275 316 6,100 -1,366 Descending Cleveland Center
Tue 04:53:10 PM 40.4278 -79.8950 299° West 263 303 4,900 -1,082 Descending Cleveland Center
Tue 04:54:12 PM 40.4608 -79.9719 299° West 250 288 3,900 -919 Descending Cleveland Center
Tue 04:55:14 PM 40.4811 -80.0439 290° West 224 258 3,000 -780 Descending Cleveland Center
Tue 04:56:15 PM 40.4828 -80.1222 272° West 187 215 2,300 -683 Descending Cleveland Center
Tue 04:57:17 PM 40.4836 -80.1736 271° West 162 186 1,600 -677 Descending Cleveland Center

Login

Don't have an account? Register now (free) for customized features, flight alerts, and more!